createdAt,value
2022-09-07T00:00:53.719Z,100822.22
2022-09-07T00:03:21.023Z,100825.63
2022-09-07T00:05:50.002Z,100824.88
2022-09-07T00:08:18.438Z,100825.47
2022-09-07T00:10:55.670Z,100815.06
2022-09-07T00:13:23.720Z,100802.41
2022-09-07T00:15:50.511Z,100804.16
2022-09-07T00:18:17.636Z,100808.88
2022-09-07T00:20:44.145Z,100808.88
2022-09-07T00:23:11.097Z,100808.59
2022-09-07T00:25:39.287Z,100815.94
2022-09-07T00:28:07.884Z,100819.16
2022-09-07T00:30:40.017Z,100828.75
2022-09-07T00:33:06.444Z,100828.84
2022-09-07T00:35:32.879Z,100833.13
2022-09-07T00:37:59.335Z,100830.97
2022-09-07T00:40:25.775Z,100834.19
2022-09-07T00:42:52.216Z,100837.91
2022-09-07T00:45:20.752Z,100840.75
2022-09-07T00:47:47.159Z,100838.38
2022-09-07T00:50:45.817Z,100841.84
2022-09-07T00:53:27.257Z,100842.50
2022-09-07T00:55:54.398Z,100835.47
2022-09-07T00:58:22.523Z,100835.22
2022-09-07T01:00:50.603Z,100837.66
2022-09-07T01:03:22.988Z,100831.13
2022-09-07T01:06:05.708Z,100834.44
2022-09-07T01:08:32.958Z,100836.72
2022-09-07T01:11:01.066Z,100827.38
2022-09-07T01:13:27.730Z,100818.75
2022-09-07T01:16:35.772Z,100815.16
2022-09-07T01:19:23.579Z,100811.50
2022-09-07T01:22:34.652Z,100817.63
2022-09-07T01:25:05.259Z,100821.19
2022-09-07T01:27:37.478Z,100826.44
2022-09-07T01:30:06.848Z,100812.13
2022-09-07T01:32:48.578Z,100801.53
2022-09-07T01:35:22.844Z,100799.84
2022-09-07T01:38:13.889Z,100794.41
2022-09-07T01:40:52.033Z,100805.38
2022-09-07T01:43:42.667Z,100797.81
2022-09-07T01:46:20.986Z,100788.75
2022-09-07T01:48:52.393Z,100795.13
2022-09-07T01:51:23.282Z,100797.22
2022-09-07T01:53:53.726Z,100791.34
2022-09-07T01:56:40.801Z,100785.44
2022-09-07T01:59:20.866Z,100790.69
2022-09-07T02:02:00.514Z,100789.09
2022-09-07T02:04:35.890Z,100794.53
2022-09-07T02:07:02.292Z,100799.81
2022-09-07T02:09:40.004Z,100799.00
2022-09-07T02:12:15.881Z,100792.13
2022-09-07T02:14:52.545Z,100795.19
2022-09-07T02:17:29.530Z,100800.13
2022-09-07T02:20:04.497Z,100803.13
2022-09-07T02:22:35.076Z,100795.44
2022-09-07T02:25:04.567Z,100800.69
2022-09-07T02:27:46.135Z,100797.91
2022-09-07T02:30:13.320Z,100800.31
2022-09-07T02:32:39.958Z,100806.06
2022-09-07T02:35:07.290Z,100804.78
2022-09-07T02:37:35.064Z,100807.66
2022-09-07T02:40:01.860Z,100814.28
2022-09-07T02:42:31.719Z,100810.13
2022-09-07T02:44:58.785Z,100813.19
2022-09-07T02:47:44.036Z,100811.00
2022-09-07T02:50:31.823Z,100821.59
2022-09-07T02:53:36.799Z,100820.50
2022-09-07T02:56:19.714Z,100816.78
2022-09-07T02:58:58.287Z,100808.63
2022-09-07T03:01:51.435Z,100807.50
2022-09-07T03:04:33.505Z,100815.66
2022-09-07T03:07:09.848Z,100813.59
2022-09-07T03:09:41.891Z,100809.50
2022-09-07T03:12:09.065Z,100808.38
2022-09-07T03:14:39.970Z,100813.31
2022-09-07T03:17:07.167Z,100806.59
2022-09-07T03:19:33.792Z,100804.84
2022-09-07T03:22:00.239Z,100805.66
2022-09-07T03:24:26.673Z,100804.56
2022-09-07T03:26:53.165Z,100807.13
2022-09-07T03:29:19.681Z,100808.81
2022-09-07T03:34:13.015Z,100804.28
2022-09-07T03:36:39.469Z,100806.63
2022-09-07T03:39:07.310Z,100805.75
2022-09-07T03:41:34.360Z,100814.56
2022-09-07T03:44:08.047Z,100816.63
2022-09-07T03:46:35.130Z,100821.78
2022-09-07T03:49:01.698Z,100812.13
2022-09-07T03:51:28.175Z,100822.03
2022-09-07T03:53:54.636Z,100808.03
2022-09-07T03:56:23.421Z,100810.31
2022-09-07T03:58:50.802Z,100804.09
2022-09-07T04:01:20.212Z,100800.63
2022-09-07T04:03:47.900Z,100802.63
2022-09-07T04:06:15.943Z,100795.44
2022-09-07T04:08:42.911Z,100787.59
2022-09-07T04:11:13.337Z,100792.81
2022-09-07T04:13:40.265Z,100787.44
2022-09-07T04:16:21.084Z,100783.88
2022-09-07T04:18:49.614Z,100781.16
2022-09-07T04:21:20.897Z,100788.19
2022-09-07T04:23:48.348Z,100783.31
2022-09-07T04:26:17.657Z,100774.25
2022-09-07T04:28:45.557Z,100779.72
2022-09-07T04:31:12.891Z,100775.41
2022-09-07T04:33:39.484Z,100771.25
2022-09-07T04:36:06.144Z,100769.00
2022-09-07T04:38:32.721Z,100771.69
2022-09-07T04:41:06.533Z,100778.25
2022-09-07T04:43:32.967Z,100772.34
2022-09-07T04:46:06.094Z,100769.81
2022-09-07T04:48:33.016Z,100769.81
2022-09-07T04:51:07.572Z,100769.81
2022-09-07T04:53:35.747Z,100770.81
2022-09-07T04:56:02.658Z,100766.34
2022-09-07T04:58:29.478Z,100771.47
2022-09-07T05:01:01.791Z,100769.81
2022-09-07T05:03:30.405Z,100780.41
2022-09-07T05:05:56.854Z,100777.38
2022-09-07T05:08:23.327Z,100785.06
2022-09-07T05:10:53.803Z,100795.78
2022-09-07T05:13:20.728Z,100794.34
2022-09-07T05:15:47.421Z,100799.72
2022-09-07T05:18:13.925Z,100801.66
2022-09-07T05:20:41.802Z,100814.53
2022-09-07T05:23:08.948Z,100817.34
2022-09-07T05:25:42.223Z,100830.03
2022-09-07T05:28:09.323Z,100838.03
2022-09-07T05:33:22.430Z,100855.28
2022-09-07T05:35:58.700Z,100849.06
2022-09-07T05:38:25.743Z,100843.91
2022-09-07T05:40:52.513Z,100843.34
2022-09-07T05:43:19.008Z,100859.75
2022-09-07T05:45:45.836Z,100859.84
2022-09-07T05:48:12.279Z,100863.47
2022-09-07T05:50:38.832Z,100863.97
2022-09-07T05:53:05.290Z,100866.44
2022-09-07T05:55:32.090Z,100880.03
2022-09-07T05:57:58.562Z,100882.19
2022-09-07T06:00:25.026Z,100879.78
2022-09-07T06:02:51.560Z,100887.97
2022-09-07T06:05:18.105Z,100884.47
2022-09-07T06:07:48.098Z,100895.81
2022-09-07T06:13:01.681Z,100900.38
2022-09-07T06:15:28.324Z,100899.88
2022-09-07T06:17:54.830Z,100901.38
2022-09-07T06:20:21.278Z,100903.22
2022-09-07T06:22:47.710Z,100902.03
2022-09-07T06:25:14.332Z,100902.91
2022-09-07T06:27:40.772Z,100910.47
2022-09-07T06:30:07.733Z,100905.91
2022-09-07T06:32:45.530Z,100909.91
2022-09-07T06:35:13.513Z,100908.75
2022-09-07T06:37:40.424Z,100902.53
2022-09-07T06:40:08.339Z,100903.59
2022-09-07T06:42:36.151Z,100904.03
2022-09-07T06:45:02.797Z,100908.56
2022-09-07T06:47:29.240Z,100914.47
2022-09-07T06:49:55.712Z,100909.34
2022-09-07T06:52:22.548Z,100906.13
2022-09-07T06:55:04.420Z,100906.78
2022-09-07T06:57:30.912Z,100913.25
2022-09-07T06:59:57.373Z,100910.59
2022-09-07T07:02:23.804Z,100911.13
2022-09-07T07:04:50.294Z,100914.56
2022-09-07T07:07:16.727Z,100913.59
2022-09-07T07:09:43.219Z,100915.91
2022-09-07T07:12:11.155Z,100921.28
2022-09-07T07:14:40.966Z,100922.50
2022-09-07T07:17:09.109Z,100926.09
2022-09-07T07:19:35.562Z,100927.47
2022-09-07T07:24:48.494Z,100935.69
2022-09-07T07:27:15.097Z,100944.47
2022-09-07T07:29:41.524Z,100949.13
2022-09-07T07:32:07.965Z,100955.06
2022-09-07T07:34:34.419Z,100961.16
2022-09-07T07:37:00.847Z,100949.22
2022-09-07T07:42:13.628Z,100939.03
2022-09-07T07:44:40.167Z,100950.50
2022-09-07T07:47:06.648Z,100950.00
2022-09-07T07:49:33.061Z,100964.00
2022-09-07T07:54:46.101Z,100963.00
2022-09-07T07:57:12.680Z,100976.06
2022-09-07T07:59:39.419Z,100981.69
2022-09-07T08:02:08.672Z,100976.41
2022-09-07T08:04:35.854Z,100991.03
2022-09-07T08:07:08.647Z,100998.94
2022-09-07T08:09:37.223Z,100997.59
2022-09-07T08:12:04.017Z,101001.16
2022-09-07T08:14:30.436Z,101003.78
2022-09-07T08:16:56.866Z,100996.63
2022-09-07T08:19:23.280Z,100989.41
2022-09-07T08:21:49.648Z,100976.09
2022-09-07T08:24:16.041Z,100983.19
2022-09-07T08:26:42.632Z,100984.66
2022-09-07T08:29:09.025Z,100979.41
2022-09-07T08:31:35.608Z,100986.78
2022-09-07T08:34:02.139Z,100979.16
2022-09-07T08:36:31.608Z,100970.53
2022-09-07T08:38:58.021Z,100979.97
2022-09-07T08:41:46.611Z,100975.69
2022-09-07T08:44:20.948Z,100970.44
2022-09-07T08:47:01.706Z,100977.72
2022-09-07T08:49:46.501Z,100979.28
2022-09-07T08:52:18.929Z,100982.50
2022-09-07T08:54:58.449Z,100976.88
2022-09-07T08:57:30.512Z,100984.97
2022-09-07T09:00:22.477Z,100979.47
2022-09-07T09:03:28.753Z,100981.31
2022-09-07T09:05:57.202Z,100981.19
2022-09-07T09:09:15.118Z,100978.22
2022-09-07T09:12:19.373Z,100977.47
2022-09-07T09:15:13.472Z,100971.78
2022-09-07T09:17:56.349Z,100969.97
2022-09-07T09:20:35.438Z,100961.69
2022-09-07T09:23:12.400Z,100957.44
2022-09-07T09:25:51.184Z,100952.41
2022-09-07T09:28:17.911Z,100955.06
2022-09-07T09:30:44.810Z,100947.53
2022-09-07T09:33:21.839Z,100935.94
2022-09-07T09:35:51.211Z,100924.38
2022-09-07T09:38:30.010Z,100924.00
2022-09-07T09:41:04.035Z,100925.19
2022-09-07T09:43:53.861Z,100930.91
2022-09-07T09:49:34.242Z,100916.94
2022-09-07T09:54:53.717Z,100914.72
2022-09-07T10:00:36.256Z,100908.19
2022-09-07T10:05:52.197Z,100894.75
2022-09-07T10:08:21.375Z,100886.03
2022-09-07T10:10:56.841Z,100887.72
2022-09-07T10:13:27.995Z,100897.97
2022-09-07T10:15:56.767Z,100899.09
2022-09-07T10:18:56.812Z,100899.41
2022-09-07T10:21:26.812Z,100898.66
2022-09-07T10:24:06.140Z,100894.56
2022-09-07T10:26:38.220Z,100894.75
2022-09-07T10:29:25.559Z,100889.66
2022-09-07T10:32:18.328Z,100892.41
2022-09-07T10:34:56.568Z,100894.94
2022-09-07T10:37:34.171Z,100888.66
2022-09-07T10:40:18.229Z,100883.63
2022-09-07T10:46:56.291Z,100885.19
2022-09-07T10:49:23.612Z,100883.53
2022-09-07T10:52:38.124Z,100886.97
2022-09-07T10:55:15.781Z,100877.53
2022-09-07T10:58:00.908Z,100879.41
2022-09-07T11:00:36.385Z,100879.31
2022-09-07T11:03:26.169Z,100884.81
2022-09-07T11:06:14.802Z,100881.59
2022-09-07T11:09:16.963Z,100878.38
2022-09-07T11:12:01.357Z,100874.97
2022-09-07T11:14:31.716Z,100877.88
2022-09-07T11:17:03.657Z,100872.63
2022-09-07T11:19:51.769Z,100876.06
2022-09-07T11:22:18.208Z,100876.06
2022-09-07T11:28:03.765Z,100866.38
2022-09-07T11:30:35.708Z,100857.09
2022-09-07T11:33:11.573Z,100863.41
2022-09-07T11:35:47.184Z,100865.28
2022-09-07T11:38:23.470Z,100861.38
2022-09-07T11:41:08.603Z,100857.25
2022-09-07T11:43:41.297Z,100867.16
2022-09-07T11:46:15.650Z,100869.16
2022-09-07T11:48:46.989Z,100861.31
2022-09-07T11:51:21.315Z,100866.81
2022-09-07T11:53:54.004Z,100857.22
2022-09-07T11:56:37.265Z,100861.66
2022-09-07T11:59:36.989Z,100863.13
2022-09-07T12:02:15.407Z,100856.97
2022-09-07T12:05:00.069Z,100844.66
2022-09-07T12:08:05.054Z,100847.53
2022-09-07T12:11:10.134Z,100854.19
2022-09-07T12:13:45.432Z,100865.19
2022-09-07T12:16:17.870Z,100865.47
2022-09-07T12:19:04.819Z,100854.84
2022-09-07T12:21:40.315Z,100858.19
2022-09-07T12:24:35.420Z,100857.16
2022-09-07T12:27:03.903Z,100850.78
2022-09-07T12:29:31.041Z,100859.28
2022-09-07T12:34:55.623Z,100847.69
2022-09-07T12:37:40.506Z,100837.56
2022-09-07T12:40:28.624Z,100826.19
2022-09-07T12:43:13.153Z,100818.16
2022-09-07T12:45:39.528Z,100808.75
2022-09-07T12:48:46.645Z,100804.91
2022-09-07T12:54:15.356Z,100788.50
2022-09-07T12:56:41.962Z,100780.72
2022-09-07T12:59:56.953Z,100782.44
2022-09-07T13:02:50.764Z,100775.69
2022-09-07T13:05:29.021Z,100772.53
2022-09-07T13:08:07.981Z,100781.72
2022-09-07T13:10:38.028Z,100774.63
2022-09-07T13:13:16.834Z,100771.16
2022-09-07T13:15:43.588Z,100755.28
2022-09-07T13:18:30.328Z,100757.25
2022-09-07T13:21:08.648Z,100755.59
2022-09-07T13:27:05.577Z,100752.91
2022-09-07T13:29:41.061Z,100757.34
2022-09-07T13:32:10.936Z,100753.88
2022-09-07T13:34:48.696Z,100751.25
2022-09-07T13:37:19.323Z,100748.59
2022-09-07T13:39:48.490Z,100743.44
2022-09-07T13:42:17.658Z,100740.09
2022-09-07T13:44:53.264Z,100731.38
2022-09-07T13:47:42.967Z,100723.59
2022-09-07T13:50:17.761Z,100720.69
2022-09-07T13:53:21.953Z,100720.63
2022-09-07T13:55:54.457Z,100725.03
2022-09-07T13:58:34.918Z,100717.25
2022-09-07T14:01:04.420Z,100724.28
2022-09-07T14:03:39.222Z,100722.53
2022-09-07T14:06:20.802Z,100720.69
2022-09-07T14:08:55.398Z,100717.19
2022-09-07T14:11:42.380Z,100718.31
2022-09-07T14:14:11.786Z,100706.28
2022-09-07T14:16:38.741Z,100708.09
2022-09-07T14:19:17.093Z,100705.50
2022-09-07T14:21:43.814Z,100710.66
2022-09-07T14:24:29.487Z,100702.53
2022-09-07T14:26:56.174Z,100696.38
2022-09-07T14:29:25.055Z,100703.72
2022-09-07T14:31:52.212Z,100698.34
2022-09-07T14:34:23.262Z,100687.78
2022-09-07T14:36:51.362Z,100682.59
2022-09-07T14:39:20.974Z,100684.31
2022-09-07T14:41:48.078Z,100678.06
2022-09-07T14:44:46.980Z,100670.19
2022-09-07T14:47:23.280Z,100669.25
2022-09-07T14:49:52.541Z,100664.09
2022-09-07T14:52:24.793Z,100668.53
2022-09-07T14:54:52.723Z,100661.66
2022-09-07T14:57:19.229Z,100656.19
2022-09-07T14:59:47.946Z,100655.25
2022-09-07T15:02:24.058Z,100656.13
2022-09-07T15:05:23.081Z,100657.88
2022-09-07T15:07:54.603Z,100646.59
2022-09-07T15:10:20.965Z,100645.78
2022-09-07T15:12:58.929Z,100645.69
2022-09-07T15:15:29.682Z,100642.03
2022-09-07T15:18:03.147Z,100649.16
2022-09-07T15:20:32.482Z,100645.59
2022-09-07T15:22:59.343Z,100646.63
2022-09-07T15:25:25.789Z,100651.91
2022-09-07T15:27:53.940Z,100658.13
2022-09-07T15:30:20.517Z,100649.34
2022-09-07T15:32:46.982Z,100658.16
2022-09-07T15:35:13.576Z,100658.13
2022-09-07T15:40:28.401Z,100660.78
2022-09-07T15:43:08.570Z,100641.41
2022-09-07T15:45:40.459Z,100642.19
2022-09-07T15:48:07.156Z,100626.31
2022-09-07T15:50:33.659Z,100626.16
2022-09-07T15:53:00.870Z,100621.81
2022-09-07T15:55:27.732Z,100628.09
2022-09-07T15:58:08.754Z,100617.47
2022-09-07T16:00:38.391Z,100610.50
2022-09-07T16:03:05.830Z,100610.44
2022-09-07T16:05:33.526Z,100611.22
2022-09-07T16:10:53.497Z,100598.03
2022-09-07T16:13:20.421Z,100590.06
2022-09-07T16:15:48.804Z,100595.31
2022-09-07T16:18:17.571Z,100600.59
2022-09-07T16:20:44.672Z,100601.34
2022-09-07T16:23:14.242Z,100595.09
2022-09-07T16:25:43.101Z,100589.75
2022-09-07T16:28:10.071Z,100594.09
2022-09-07T16:30:40.356Z,100594.06
2022-09-07T16:33:06.766Z,100595.72
2022-09-07T16:35:33.308Z,100580.75
2022-09-07T16:40:46.457Z,100574.56
2022-09-07T16:43:12.900Z,100576.31
2022-09-07T16:48:25.661Z,100572.69
2022-09-07T16:50:58.938Z,100576.06
2022-09-07T16:53:28.840Z,100579.47
2022-09-07T16:56:06.896Z,100578.56
2022-09-07T16:58:37.422Z,100568.75
2022-09-07T17:01:09.249Z,100573.09
2022-09-07T17:03:36.929Z,100569.56
2022-09-07T17:06:05.221Z,100565.13
2022-09-07T17:08:33.375Z,100566.84
2022-09-07T17:11:08.475Z,100565.91
2022-09-07T17:13:36.806Z,100562.28
2022-09-07T17:16:15.269Z,100566.63
2022-09-07T17:21:33.850Z,100571.78
2022-09-07T17:24:03.849Z,100580.50
2022-09-07T17:26:31.680Z,100574.28
2022-09-07T17:29:01.716Z,100579.47
2022-09-07T17:34:17.791Z,100578.41
2022-09-07T17:36:44.482Z,100564.28
2022-09-07T17:39:16.042Z,100560.63
2022-09-07T17:41:44.223Z,100562.34
2022-09-07T17:44:11.090Z,100562.19
2022-09-07T17:46:37.581Z,100556.88
2022-09-07T17:49:06.918Z,100562.09
2022-09-07T17:51:33.424Z,100563.81
2022-09-07T17:54:02.969Z,100556.72
2022-09-07T17:56:31.337Z,100576.00
2022-09-07T18:01:45.845Z,100577.63
2022-09-07T18:04:13.161Z,100581.09
2022-09-07T18:06:41.040Z,100588.06
2022-09-07T18:09:07.883Z,100587.09
2022-09-07T18:11:50.543Z,100590.59
2022-09-07T18:14:18.445Z,100596.56
2022-09-07T18:16:47.847Z,100591.13
2022-09-07T18:19:15.395Z,100600.69
2022-09-07T18:21:43.585Z,100605.09
2022-09-07T18:24:22.319Z,100598.88
2022-09-07T18:26:52.111Z,100590.84
2022-09-07T18:29:31.272Z,100588.78
2022-09-07T18:32:00.321Z,100586.50
2022-09-07T18:34:28.577Z,100588.75
2022-09-07T18:36:55.354Z,100592.72
2022-09-07T18:39:21.938Z,100597.72
2022-09-07T18:41:48.316Z,100586.09
2022-09-07T18:47:01.201Z,100587.63
2022-09-07T18:49:27.605Z,100585.06
2022-09-07T18:54:41.381Z,100590.19
2022-09-07T18:57:08.188Z,100579.38
2022-09-07T18:59:34.587Z,100580.31
2022-09-07T19:02:04.549Z,100583.72
2022-09-07T19:07:20.474Z,100595.00
2022-09-07T19:09:48.134Z,100594.25
2022-09-07T19:12:14.752Z,100609.31
2022-09-07T19:14:42.123Z,100609.44
2022-09-07T19:17:10.798Z,100616.50
2022-09-07T19:19:38.297Z,100627.97
2022-09-07T19:22:04.910Z,100621.91
2022-09-07T19:24:31.834Z,100607.94
2022-09-07T19:27:00.693Z,100595.50
2022-09-07T19:29:27.735Z,100592.81
2022-09-07T19:32:07.586Z,100589.38
2022-09-07T19:34:39.366Z,100593.63
2022-09-07T19:37:08.164Z,100605.88
2022-09-07T19:39:34.755Z,100605.06
2022-09-07T19:42:02.873Z,100593.63
2022-09-07T19:44:29.298Z,100595.44
2022-09-07T19:46:55.950Z,100586.63
2022-09-07T19:49:22.717Z,100591.06
2022-09-07T19:51:51.649Z,100607.69
2022-09-07T19:54:18.356Z,100609.44
2022-09-07T19:56:44.854Z,100597.06
2022-09-07T19:59:12.289Z,100593.56
2022-09-07T20:01:40.469Z,100578.53
2022-09-07T20:04:19.691Z,100582.81
2022-09-07T20:06:48.008Z,100572.25
2022-09-07T20:09:14.410Z,100575.69
2022-09-07T20:11:46.091Z,100578.22
2022-09-07T20:14:13.799Z,100572.91
2022-09-07T20:16:41.504Z,100568.50
2022-09-07T20:19:08.216Z,100559.63
2022-09-07T20:21:36.787Z,100557.81
2022-09-07T20:24:03.778Z,100556.88
2022-09-07T20:26:33.085Z,100555.06
2022-09-07T20:29:23.430Z,100547.09
2022-09-07T20:31:47.094Z,100543.53
2022-09-07T20:34:14.194Z,100539.00
2022-09-07T20:36:40.647Z,100539.88
2022-09-07T20:39:07.267Z,100536.19
2022-09-07T20:41:34.752Z,100531.84
2022-09-07T20:44:03.288Z,100519.56
2022-09-07T20:46:31.221Z,100526.59
2022-09-07T20:48:57.974Z,100528.34
2022-09-07T20:51:24.406Z,100516.88
2022-09-07T20:53:50.965Z,100532.72
2022-09-07T20:56:26.241Z,100538.06
2022-09-07T20:59:01.776Z,100530.09
2022-09-07T21:01:30.212Z,100524.78
2022-09-07T21:03:58.461Z,100525.59
2022-09-07T21:06:26.315Z,100521.09
2022-09-07T21:08:53.432Z,100522.91
2022-09-07T21:11:22.802Z,100521.19
2022-09-07T21:14:06.175Z,100515.06
2022-09-07T21:16:33.530Z,100500.00
2022-09-07T21:19:01.518Z,100503.41
2022-09-07T21:21:29.476Z,100492.66
2022-09-07T21:24:00.700Z,100489.81
2022-09-07T21:26:28.391Z,100493.25
2022-09-07T21:29:03.750Z,100496.72
2022-09-07T21:31:31.834Z,100493.94
2022-09-07T21:34:00.281Z,100487.66
2022-09-07T21:36:27.301Z,100479.69
2022-09-07T21:38:54.646Z,100475.13
2022-09-07T21:41:23.375Z,100477.66
2022-09-07T21:43:54.932Z,100468.03
2022-09-07T21:46:21.406Z,100467.97
2022-09-07T21:48:48.030Z,100469.59
2022-09-07T21:51:15.321Z,100461.56
2022-09-07T21:53:43.491Z,100462.31
2022-09-07T21:56:15.060Z,100458.75
2022-09-07T21:58:41.539Z,100460.34
2022-09-07T22:01:10.916Z,100461.16
2022-09-07T22:03:39.153Z,100454.28
2022-09-07T22:06:05.933Z,100454.25
2022-09-07T22:08:34.224Z,100440.81
2022-09-07T22:11:06.174Z,100445.94
2022-09-07T22:13:32.861Z,100443.38
2022-09-07T22:15:59.525Z,100440.59
2022-09-07T22:18:26.054Z,100443.28
2022-09-07T22:21:11.232Z,100453.81
2022-09-07T22:23:40.613Z,100438.81
2022-09-07T22:26:08.187Z,100444.69
2022-09-07T22:28:35.319Z,100449.94
2022-09-07T22:31:15.996Z,100456.75
2022-09-07T22:33:43.505Z,100460.84
2022-09-07T22:36:14.094Z,100465.09
2022-09-07T22:38:41.593Z,100471.03
2022-09-07T22:41:14.351Z,100474.63
2022-09-07T22:43:41.324Z,100458.81
2022-09-07T22:46:08.017Z,100465.69
2022-09-07T22:48:34.918Z,100475.19
2022-09-07T22:51:02.793Z,100474.22
2022-09-07T22:53:32.062Z,100481.25
2022-09-07T22:55:58.947Z,100482.03
2022-09-07T22:58:28.842Z,100488.72
2022-09-07T23:01:01.397Z,100473.69
2022-09-07T23:03:29.171Z,100473.53
2022-09-07T23:05:57.005Z,100471.69
2022-09-07T23:08:24.361Z,100464.78
2022-09-07T23:10:50.976Z,100474.31
2022-09-07T23:13:19.055Z,100467.41
2022-09-07T23:15:47.004Z,100456.66
2022-09-07T23:18:19.344Z,100463.44
2022-09-07T23:20:46.532Z,100463.19
2022-09-07T23:23:13.308Z,100472.03
2022-09-07T23:25:42.030Z,100468.41
2022-09-07T23:28:12.300Z,100467.34
2022-09-07T23:30:42.464Z,100463.00
2022-09-07T23:33:08.914Z,100455.16
2022-09-07T23:35:35.286Z,100456.03
2022-09-07T23:38:01.732Z,100453.41
2022-09-07T23:40:30.264Z,100452.53
2022-09-07T23:42:56.703Z,100458.66
2022-09-07T23:45:23.092Z,100462.22
2022-09-07T23:47:49.998Z,100469.34
2022-09-07T23:50:16.535Z,100461.44
2022-09-07T23:52:43.036Z,100457.63
2022-09-07T23:55:10.949Z,100458.53
2022-09-07T23:57:38.188Z,100455.88
